Time;durP1;ratioP1;P1;durP2;ratioP2;P2;SDS_P1;SDS_P2;PMS_P1;PMS_P2;Temp;Humidity;BMP_temperature;BMP_pressure;BME280_temperature;BME280_humidity;BME280_pressure;Samples;Min_cycle;Max_cycle;Signal;HPM_P1;HPM_P2
2023/09/07 00:01:56;;;;;;;;;;;19.00;82.90;;;;;;4980463;28;19918;-84
2023/09/07 00:04:27;;;;;;;;;;;19.00;82.90;;;;;;5000410;28;19913;-84
2023/09/07 00:06:52;;;;;;;;;;;19.00;82.70;;;;;;4979093;28;20012;-84
2023/09/07 00:09:18;;;;;;;;;;;18.90;83.10;;;;;;4996800;28;19918;-84
2023/09/07 00:11:47;;;;;;;;;;;18.90;83.20;;;;;;4979695;28;19984;-85
2023/09/07 00:14:12;;;;;;;;;;;19.00;83.50;;;;;;4997361;28;19909;-84
2023/09/07 00:16:38;;;;;;;;;;;19.00;83.20;;;;;;4995143;28;19921;-85
2023/09/07 00:19:06;;;;;;;;;;;18.90;83.50;;;;;;4974626;28;19910;-84
2023/09/07 00:21:32;;;;;;;;;;;18.90;83.70;;;;;;4977136;28;19914;-85
2023/09/07 00:23:57;;;;;;;;;;;18.90;83.70;;;;;;4978706;28;20346;-84
2023/09/07 00:26:23;;;;;;;;;;;18.80;83.90;;;;;;4989338;28;19961;-84
2023/09/07 00:28:48;;;;;;;;;;;18.80;84.10;;;;;;4980197;28;19909;-84
2023/09/07 00:31:14;;;;;;;;;;;18.80;83.60;;;;;;4979703;28;20371;-84
2023/09/07 00:33:39;;;;;;;;;;;18.80;83.50;;;;;;4979279;28;20295;-85
2023/09/07 00:36:05;;;;;;;;;;;18.80;83.30;;;;;;4975965;28;19924;-85
2023/09/07 00:38:30;;;;;;;;;;;18.80;83.40;;;;;;4986481;28;20442;-84
2023/09/07 00:40:56;;;;;;;;;;;18.70;83.10;;;;;;4971299;28;20354;-85
2023/09/07 00:43:21;;;;;;;;;;;18.80;83.20;;;;;;4979307;28;19917;-84
2023/09/07 00:45:47;;;;;;;;;;;18.70;83.20;;;;;;4979111;28;19921;-84
2023/09/07 00:48:14;;;;;;;;;;;18.70;82.90;;;;;;4977792;28;20398;-84
2023/09/07 00:50:40;;;;;;;;;;;18.60;83.00;;;;;;4995365;28;19914;-84
2023/09/07 00:53:06;;;;;;;;;;;18.60;83.30;;;;;;4995852;28;20423;-85
2023/09/07 00:55:34;;;;;;;;;;;18.60;83.20;;;;;;4974735;28;20360;-84
2023/09/07 00:58:00;;;;;;;;;;;18.60;83.30;;;;;;4977568;28;19949;-85
2023/09/07 01:00:26;;;;;;;;;;;18.50;83.50;;;;;;4979489;28;19917;-84
2023/09/07 01:02:51;;;;;;;;;;;18.50;83.70;;;;;;4996120;28;20299;-85
2023/09/07 01:05:17;;;;;;;;;;;18.50;83.60;;;;;;4976742;28;20369;-84
2023/09/07 01:07:47;;;;;;;;;;;18.50;83.70;;;;;;4991583;28;19964;-85
2023/09/07 01:10:13;;;;;;;;;;;18.40;83.70;;;;;;4987832;28;19913;-85
2023/09/07 01:12:39;;;;;;;;;;;18.30;83.60;;;;;;4981862;28;19910;-84
2023/09/07 01:15:05;;;;;;;;;;;18.30;83.90;;;;;;4983447;28;19982;-84
2023/09/07 01:17:30;;;;;;;;;;;18.30;83.90;;;;;;4979672;28;20001;-85
2023/09/07 01:19:57;;;;;;;;;;;18.30;83.90;;;;;;4997183;28;19988;-84
2023/09/07 01:22:22;;;;;;;;;;;18.30;84.00;;;;;;4990548;28;19914;-85
2023/09/07 01:24:48;;;;;;;;;;;18.30;84.10;;;;;;4972352;28;19914;-84
2023/09/07 01:27:14;;;;;;;;;;;18.30;83.90;;;;;;4982965;28;20013;-84
2023/09/07 01:29:40;;;;;;;;;;;18.30;83.80;;;;;;4982623;28;19917;-85
2023/09/07 01:32:06;;;;;;;;;;;18.10;83.60;;;;;;5000300;28;19957;-85
2023/09/07 01:34:31;;;;;;;;;;;18.20;83.80;;;;;;4981627;28;20338;-85
2023/09/07 01:36:57;;;;;;;;;;;18.10;83.80;;;;;;4987549;28;19964;-85
2023/09/07 01:39:22;;;;;;;;;;;18.10;83.90;;;;;;5002282;28;19914;-84
2023/09/07 01:41:48;;;;;;;;;;;18.10;84.30;;;;;;4979688;28;19969;-84
2023/09/07 01:44:13;;;;;;;;;;;18.10;84.00;;;;;;4998939;28;19910;-86
2023/09/07 01:46:39;;;;;;;;;;;18.00;83.90;;;;;;4975515;28;19972;-85
2023/09/07 01:49:04;;;;;;;;;;;17.90;84.00;;;;;;4975430;28;19944;-85
2023/09/07 01:51:30;;;;;;;;;;;17.90;84.10;;;;;;4978887;28;20567;-85
2023/09/07 01:53:55;;;;;;;;;;;17.90;84.10;;;;;;4970418;28;19914;-85
2023/09/07 01:56:21;;;;;;;;;;;17.80;83.90;;;;;;4965103;28;19925;-85
2023/09/07 01:58:47;;;;;;;;;;;17.80;83.80;;;;;;4977348;28;19913;-85
2023/09/07 02:01:22;;;;;;;;;;;17.80;83.70;;;;;;4978433;28;20004;-85
2023/09/07 02:03:47;;;;;;;;;;;17.80;84.20;;;;;;4997944;28;20020;-85
2023/09/07 02:06:13;;;;;;;;;;;17.80;84.20;;;;;;4978254;28;19910;-84
2023/09/07 02:08:38;;;;;;;;;;;17.80;83.90;;;;;;4977176;28;19920;-84
2023/09/07 02:11:05;;;;;;;;;;;17.90;83.80;;;;;;4978294;28;19914;-84
2023/09/07 02:13:30;;;;;;;;;;;17.90;83.80;;;;;;4971496;28;19917;-85
2023/09/07 02:15:56;;;;;;;;;;;17.80;84.20;;;;;;4988321;28;19922;-85
2023/09/07 02:18:21;;;;;;;;;;;17.80;84.10;;;;;;4976699;28;19941;-85
2023/09/07 02:20:47;;;;;;;;;;;17.80;83.90;;;;;;4990005;28;19913;-84
2023/09/07 02:23:12;;;;;;;;;;;17.80;83.80;;;;;;4977395;28;19933;-84
2023/09/07 02:25:38;;;;;;;;;;;17.80;83.60;;;;;;4970776;28;19940;-85
2023/09/07 02:28:03;;;;;;;;;;;17.80;83.60;;;;;;4968600;28;20008;-85
2023/09/07 02:30:29;;;;;;;;;;;17.80;83.80;;;;;;4970510;28;19925;-85
2023/09/07 02:32:54;;;;;;;;;;;17.70;84.10;;;;;;4973053;28;19914;-85
2023/09/07 02:35:20;;;;;;;;;;;17.60;84.30;;;;;;4989106;28;20523;-85
2023/09/07 02:37:45;;;;;;;;;;;17.60;84.20;;;;;;4993179;28;19952;-85
2023/09/07 02:45:50;;;;;;;;;;;17.60;84.50;;;;;;5023441;28;19982;-84
2023/09/07 02:48:15;;;;;;;;;;;17.60;84.40;;;;;;4990119;28;19925;-83
2023/09/07 02:50:48;;;;;;;;;;;17.50;84.50;;;;;;4996325;28;19929;-84
2023/09/07 02:53:14;;;;;;;;;;;17.50;84.70;;;;;;5009374;28;19924;-85
2023/09/07 02:55:40;;;;;;;;;;;17.50;85.20;;;;;;4996438;28;20380;-84
2023/09/07 02:58:07;;;;;;;;;;;17.50;85.30;;;;;;5002932;28;20561;-84
2023/09/07 03:00:34;;;;;;;;;;;17.60;85.00;;;;;;5004861;28;19916;-84
2023/09/07 03:03:00;;;;;;;;;;;17.50;85.30;;;;;;4991234;28;19910;-84
2023/09/07 03:05:31;;;;;;;;;;;17.50;85.30;;;;;;5011247;28;20056;-85
2023/09/07 03:07:56;;;;;;;;;;;17.50;85.50;;;;;;4989636;28;20017;-85
2023/09/07 03:10:22;;;;;;;;;;;17.50;85.50;;;;;;4990876;28;20008;-85
2023/09/07 03:12:48;;;;;;;;;;;17.50;85.60;;;;;;4996074;28;19924;-84
2023/09/07 03:15:13;;;;;;;;;;;17.40;85.60;;;;;;4995451;28;19913;-84
2023/09/07 03:17:39;;;;;;;;;;;17.50;85.80;;;;;;5005412;28;19918;-84
2023/09/07 03:20:13;;;;;;;;;;;17.50;86.10;;;;;;4994335;28;19977;-84
2023/09/07 03:22:40;;;;;;;;;;;17.50;85.70;;;;;;4989421;28;19963;-85
2023/09/07 03:25:06;;;;;;;;;;;17.50;85.60;;;;;;5013814;28;19921;-84
2023/09/07 03:27:31;;;;;;;;;;;17.50;85.00;;;;;;4996251;28;19921;-84
2023/09/07 03:29:57;;;;;;;;;;;17.40;85.20;;;;;;4993744;28;20368;-85
2023/09/07 03:32:22;;;;;;;;;;;17.50;85.20;;;;;;4990436;28;20286;-85
2023/09/07 03:34:48;;;;;;;;;;;17.50;85.30;;;;;;4998055;28;19935;-85
2023/09/07 03:37:13;;;;;;;;;;;17.50;85.40;;;;;;4997327;28;19913;-86
2023/09/07 03:39:39;;;;;;;;;;;17.50;85.40;;;;;;5007620;28;20052;-86
2023/09/07 03:42:05;;;;;;;;;;;17.50;85.20;;;;;;4992945;28;20559;-84
2023/09/07 03:44:30;;;;;;;;;;;17.50;85.30;;;;;;4993926;28;20007;-84
2023/09/07 03:46:56;;;;;;;;;;;17.50;85.00;;;;;;4992939;28;19917;-84
2023/09/07 03:49:21;;;;;;;;;;;17.50;85.50;;;;;;4993608;28;19925;-84
2023/09/07 03:51:47;;;;;;;;;;;17.50;84.80;;;;;;4992739;28;19979;-84
2023/09/07 03:54:12;;;;;;;;;;;17.50;85.20;;;;;;4991820;28;19922;-85
2023/09/07 03:56:39;;;;;;;;;;;17.40;85.20;;;;;;4999974;28;19917;-85
2023/09/07 03:59:04;;;;;;;;;;;17.40;85.20;;;;;;4990627;28;19964;-85
2023/09/07 04:01:30;;;;;;;;;;;17.30;85.40;;;;;;4995525;28;19960;-84
2023/09/07 04:03:55;;;;;;;;;;;17.40;85.30;;;;;;4996046;28;20000;-85
2023/09/07 04:06:21;;;;;;;;;;;17.30;84.90;;;;;;5005260;28;20294;-85
2023/09/07 04:08:54;;;;;;;;;;;17.30;84.60;;;;;;4993317;28;19943;-85
2023/09/07 04:11:20;;;;;;;;;;;17.30;84.60;;;;;;5001893;28;19984;-85
2023/09/07 04:13:46;;;;;;;;;;;17.20;85.10;;;;;;4995821;28;20003;-85
2023/09/07 04:16:11;;;;;;;;;;;17.30;84.90;;;;;;4993181;28;19922;-84
2023/09/07 04:18:38;;;;;;;;;;;17.20;84.70;;;;;;4991928;28;20648;-85
2023/09/07 04:21:07;;;;;;;;;;;17.20;84.60;;;;;;4994455;28;19918;-85
2023/09/07 04:23:34;;;;;;;;;;;17.10;85.00;;;;;;5037443;28;19944;-85
2023/09/07 04:26:09;;;;;;;;;;;17.10;84.70;;;;;;5024514;28;19913;-84
2023/09/07 04:28:34;;;;;;;;;;;17.10;84.60;;;;;;5023446;28;19920;-85
2023/09/07 04:31:00;;;;;;;;;;;17.20;84.60;;;;;;5020039;28;19926;-82
2023/09/07 04:33:26;;;;;;;;;;;17.30;84.70;;;;;;5025558;28;19928;-84
2023/09/07 04:35:51;;;;;;;;;;;17.30;84.60;;;;;;5024061;28;19917;-84
2023/09/07 04:38:17;;;;;;;;;;;17.10;84.90;;;;;;5018633;28;19921;-84
2023/09/07 04:40:42;;;;;;;;;;;17.20;84.80;;;;;;5015083;28;19914;-84
2023/09/07 04:43:08;;;;;;;;;;;17.20;84.90;;;;;;5007306;28;19985;-85
2023/09/07 04:45:33;;;;;;;;;;;17.10;84.70;;;;;;5003303;28;19925;-85
2023/09/07 04:47:59;;;;;;;;;;;17.10;84.70;;;;;;5005827;28;19913;-85
2023/09/07 04:50:25;;;;;;;;;;;17.10;84.70;;;;;;4999295;28;20011;-85
2023/09/07 04:52:50;;;;;;;;;;;17.10;84.60;;;;;;4998227;28;19941;-83
2023/09/07 04:55:16;;;;;;;;;;;17.10;84.40;;;;;;4998589;28;19937;-83
2023/09/07 04:57:41;;;;;;;;;;;17.00;84.60;;;;;;4998179;28;19926;-84
2023/09/07 05:00:09;;;;;;;;;;;17.00;84.60;;;;;;4995413;28;19913;-83
2023/09/07 05:02:40;;;;;;;;;;;16.90;84.60;;;;;;5010335;28;19991;-85
2023/09/07 05:05:06;;;;;;;;;;;17.00;84.80;;;;;;5004070;28;19918;-85
2023/09/07 05:07:31;;;;;;;;;;;17.00;84.70;;;;;;4998660;28;19941;-84
2023/09/07 05:09:59;;;;;;;;;;;17.00;84.90;;;;;;4997410;28;20369;-86
2023/09/07 05:12:25;;;;;;;;;;;17.00;84.90;;;;;;4993481;28;19928;-85
2023/09/07 05:14:50;;;;;;;;;;;16.90;85.00;;;;;;4997392;28;19917;-84
2023/09/07 05:17:16;;;;;;;;;;;16.90;84.90;;;;;;4995923;28;19921;-85
2023/09/07 05:19:41;;;;;;;;;;;16.90;85.10;;;;;;5000635;28;20304;-85
2023/09/07 05:22:07;;;;;;;;;;;16.90;85.00;;;;;;5011286;28;20354;-84
2023/09/07 05:24:32;;;;;;;;;;;17.00;85.00;;;;;;4999102;28;20293;-83
2023/09/07 05:26:58;;;;;;;;;;;17.00;85.30;;;;;;4995811;28;19921;-82
2023/09/07 05:29:23;;;;;;;;;;;17.00;85.20;;;;;;5010349;28;19917;-84
2023/09/07 05:31:48;;;;;;;;;;;16.90;85.20;;;;;;5002921;28;19914;-83
2023/09/07 05:34:14;;;;;;;;;;;17.00;84.90;;;;;;5003745;28;19917;-83
2023/09/07 05:36:39;;;;;;;;;;;17.00;85.00;;;;;;5001473;28;19925;-82
2023/09/07 05:39:05;;;;;;;;;;;16.90;85.30;;;;;;5006086;28;19913;-81
2023/09/07 05:41:30;;;;;;;;;;;16.90;85.30;;;;;;4996614;28;19949;-81
2023/09/07 05:43:56;;;;;;;;;;;16.90;85.50;;;;;;5003368;28;20313;-81
2023/09/07 05:46:21;;;;;;;;;;;17.00;85.40;;;;;;5003372;28;19922;-82
2023/09/07 05:48:46;;;;;;;;;;;17.00;85.60;;;;;;5004682;28;19910;-81
2023/09/07 05:51:12;;;;;;;;;;;17.00;85.70;;;;;;5004824;28;19969;-81
2023/09/07 05:53:38;;;;;;;;;;;17.00;85.60;;;;;;5005630;28;19918;-82
2023/09/07 05:56:04;;;;;;;;;;;17.00;85.70;;;;;;5030703;28;20339;-80
2023/09/07 05:58:29;;;;;;;;;;;17.00;85.50;;;;;;5006975;28;19918;-80
2023/09/07 06:00:55;;;;;;;;;;;17.10;85.60;;;;;;5001560;28;19909;-80
2023/09/07 06:03:20;;;;;;;;;;;17.10;85.60;;;;;;5006490;28;20389;-81
2023/09/07 06:05:45;;;;;;;;;;;17.10;85.70;;;;;;5002519;28;20378;-81
2023/09/07 06:08:11;;;;;;;;;;;17.20;85.80;;;;;;5015624;28;19914;-81
2023/09/07 06:10:36;;;;;;;;;;;17.20;85.80;;;;;;4996328;28;19914;-81
2023/09/07 06:13:02;;;;;;;;;;;17.30;85.80;;;;;;5004265;28;19924;-81
2023/09/07 06:15:29;;;;;;;;;;;17.50;85.20;;;;;;4998823;28;19910;-81
2023/09/07 06:17:54;;;;;;;;;;;17.50;85.10;;;;;;5008227;28;19913;-81
2023/09/07 06:20:20;;;;;;;;;;;17.50;85.10;;;;;;4997068;28;20277;-81
2023/09/07 06:22:45;;;;;;;;;;;17.60;85.10;;;;;;5006993;28;19937;-84
2023/09/07 06:25:11;;;;;;;;;;;17.60;85.00;;;;;;5010952;28;19914;-81
2023/09/07 06:27:37;;;;;;;;;;;17.60;84.90;;;;;;5003764;28;19910;-82
2023/09/07 06:30:04;;;;;;;;;;;17.70;85.00;;;;;;5003287;28;20420;-81
2023/09/07 06:32:29;;;;;;;;;;;17.70;85.20;;;;;;5019073;28;20386;-82
2023/09/07 06:34:55;;;;;;;;;;;17.70;85.30;;;;;;4996082;28;19917;-80
2023/09/07 06:37:20;;;;;;;;;;;17.70;85.20;;;;;;5008611;28;19917;-82
2023/09/07 06:39:46;;;;;;;;;;;17.80;85.20;;;;;;5007200;28;19917;-82
2023/09/07 06:42:11;;;;;;;;;;;17.80;85.00;;;;;;5005159;28;19925;-81
2023/09/07 06:44:37;;;;;;;;;;;17.90;84.90;;;;;;5002603;28;20346;-81
2023/09/07 06:47:02;;;;;;;;;;;17.90;84.90;;;;;;5001654;28;20252;-82
2023/09/07 06:49:29;;;;;;;;;;;18.00;85.10;;;;;;4995827;28;19910;-83
2023/09/07 06:51:58;;;;;;;;;;;18.00;84.90;;;;;;5002035;28;19925;-83
2023/09/07 06:54:23;;;;;;;;;;;18.00;84.00;;;;;;4999580;28;20553;-82
2023/09/07 06:56:48;;;;;;;;;;;18.10;83.80;;;;;;5008473;28;19924;-82
2023/09/07 06:59:14;;;;;;;;;;;18.10;83.20;;;;;;5009330;28;19969;-83
2023/09/07 07:01:40;;;;;;;;;;;18.20;82.70;;;;;;5000747;28;19914;-82
2023/09/07 07:04:05;;;;;;;;;;;18.30;82.60;;;;;;4996903;28;19914;-83
2023/09/07 07:06:32;;;;;;;;;;;18.40;82.30;;;;;;5001045;28;20129;-83
2023/09/07 07:08:57;;;;;;;;;;;18.50;82.60;;;;;;4991774;28;20497;-81
2023/09/07 07:11:22;;;;;;;;;;;18.50;82.10;;;;;;5001212;28;19925;-82
2023/09/07 07:13:48;;;;;;;;;;;18.60;81.30;;;;;;5000944;28;19920;-81
2023/09/07 07:16:13;;;;;;;;;;;18.80;78.60;;;;;;5009345;28;19984;-83
2023/09/07 07:18:39;;;;;;;;;;;18.90;79.30;;;;;;5002513;28;19910;-83
2023/09/07 07:21:05;;;;;;;;;;;18.90;79.60;;;;;;5012075;28;19914;-82
2023/09/07 07:23:30;;;;;;;;;;;18.90;80.40;;;;;;5005888;28;19952;-82
2023/09/07 07:25:56;;;;;;;;;;;19.00;79.50;;;;;;5002558;28;19957;-82
2023/09/07 07:28:21;;;;;;;;;;;19.00;79.60;;;;;;5001944;28;20267;-83
2023/09/07 07:30:48;;;;;;;;;;;19.00;79.50;;;;;;4994066;28;19909;-82
2023/09/07 07:33:13;;;;;;;;;;;19.10;79.10;;;;;;5001550;28;20380;-82
2023/09/07 07:35:39;;;;;;;;;;;19.20;78.80;;;;;;4999497;28;19921;-82
2023/09/07 07:38:04;;;;;;;;;;;19.30;78.70;;;;;;5002222;28;20342;-82
2023/09/07 07:40:30;;;;;;;;;;;19.20;78.70;;;;;;4998347;28;19920;-81
2023/09/07 07:42:56;;;;;;;;;;;19.30;78.80;;;;;;5005820;28;20044;-82
2023/09/07 07:45:21;;;;;;;;;;;19.30;78.20;;;;;;5002976;28;19917;-81
2023/09/07 07:47:50;;;;;;;;;;;19.40;77.70;;;;;;4999936;28;20244;-79
2023/09/07 07:50:16;;;;;;;;;;;19.50;77.70;;;;;;5001132;28;19963;-82
2023/09/07 07:52:41;;;;;;;;;;;19.60;77.60;;;;;;5002038;28;19913;-82
2023/09/07 07:55:07;;;;;;;;;;;19.60;77.80;;;;;;5018266;28;19941;-84
2023/09/07 07:57:32;;;;;;;;;;;19.60;77.40;;;;;;5000375;28;20340;-83
2023/09/07 07:59:58;;;;;;;;;;;19.60;77.40;;;;;;5002989;28;19941;-83
2023/09/07 08:02:23;;;;;;;;;;;19.80;77.50;;;;;;5004628;28;19910;-83
2023/09/07 08:04:49;;;;;;;;;;;19.80;77.20;;;;;;5003501;28;20365;-83
2023/09/07 08:07:14;;;;;;;;;;;19.90;77.60;;;;;;5004726;28;19917;-83
2023/09/07 08:09:40;;;;;;;;;;;20.10;77.40;;;;;;5010765;28;20435;-83
2023/09/07 08:12:05;;;;;;;;;;;20.10;76.80;;;;;;5008433;28;19959;-83
2023/09/07 08:14:31;;;;;;;;;;;20.30;76.10;;;;;;5010696;28;20374;-83
2023/09/07 08:16:57;;;;;;;;;;;20.30;76.40;;;;;;4998608;28;19969;-82
2023/09/07 08:19:23;;;;;;;;;;;20.30;76.40;;;;;;5004923;28;19921;-82
2023/09/07 08:21:48;;;;;;;;;;;20.50;75.40;;;;;;5012281;28;19922;-84
2023/09/07 08:24:13;;;;;;;;;;;20.60;75.30;;;;;;4999033;28;19914;-84
2023/09/07 08:26:39;;;;;;;;;;;20.80;74.90;;;;;;4997142;28;20013;-83
2023/09/07 08:29:05;;;;;;;;;;;20.90;75.10;;;;;;5007611;28;19917;-83
2023/09/07 08:31:33;;;;;;;;;;;21.20;74.80;;;;;;5007142;28;19910;-83
2023/09/07 08:34:00;;;;;;;;;;;21.20;75.00;;;;;;5010432;28;19910;-83
2023/09/07 08:36:28;;;;;;;;;;;21.30;74.90;;;;;;4999442;28;20308;-81
2023/09/07 08:38:53;;;;;;;;;;;21.20;75.50;;;;;;5006467;28;20001;-83
2023/09/07 08:41:20;;;;;;;;;;;21.30;75.50;;;;;;5023286;28;19960;-83
2023/09/07 08:43:46;;;;;;;;;;;21.50;75.70;;;;;;5001080;28;19917;-84
2023/09/07 08:46:20;;;;;;;;;;;21.60;73.30;;;;;;4996821;28;19925;-83
2023/09/07 08:48:46;;;;;;;;;;;21.80;74.40;;;;;;5007281;28;20004;-84
2023/09/07 08:51:12;;;;;;;;;;;21.90;71.40;;;;;;5005658;28;20003;-83
2023/09/07 08:53:39;;;;;;;;;;;22.10;71.30;;;;;;5005149;28;19914;-83
2023/09/07 08:56:06;;;;;;;;;;;22.10;70.90;;;;;;5004930;28;19914;-83
2023/09/07 08:58:31;;;;;;;;;;;22.30;71.40;;;;;;4998037;28;19913;-82
2023/09/07 09:00:57;;;;;;;;;;;22.50;70.10;;;;;;4999919;28;19910;-85
2023/09/07 09:03:23;;;;;;;;;;;22.50;69.30;;;;;;4994889;28;20266;-83
2023/09/07 09:05:50;;;;;;;;;;;22.50;69.30;;;;;;4993576;28;20377;-85
2023/09/07 09:08:20;;;;;;;;;;;22.70;68.20;;;;;;4994845;28;19910;-84
2023/09/07 09:10:45;;;;;;;;;;;22.80;67.30;;;;;;5001645;28;20396;-84
2023/09/07 09:13:11;;;;;;;;;;;23.00;66.20;;;;;;4995058;28;19914;-84
2023/09/07 09:15:37;;;;;;;;;;;23.10;66.40;;;;;;4997103;28;19921;-83
2023/09/07 09:18:10;;;;;;;;;;;23.20;65.90;;;;;;4995270;28;19928;-84
2023/09/07 09:20:37;;;;;;;;;;;23.30;65.90;;;;;;5009434;28;19976;-83
2023/09/07 09:23:04;;;;;;;;;;;23.40;62.30;;;;;;4999710;28;19949;-83
2023/09/07 09:25:31;;;;;;;;;;;23.50;61.60;;;;;;4998903;28;19918;-83
2023/09/07 09:27:56;;;;;;;;;;;23.50;62.30;;;;;;5000231;28;20373;-83
2023/09/07 09:30:21;;;;;;;;;;;23.60;61.50;;;;;;4994709;28;19929;-83
2023/09/07 09:32:48;;;;;;;;;;;23.70;61.20;;;;;;4998851;28;19910;-83
2023/09/07 09:35:16;;;;;;;;;;;23.80;61.00;;;;;;4992403;28;19910;-84
2023/09/07 09:37:51;;;;;;;;;;;23.80;62.40;;;;;;4993034;28;19913;-83
2023/09/07 09:40:16;;;;;;;;;;;24.00;61.20;;;;;;4998300;28;19955;-83
2023/09/07 09:42:43;;;;;;;;;;;24.10;60.90;;;;;;5000985;28;19914;-84
2023/09/07 09:45:09;;;;;;;;;;;24.00;62.70;;;;;;4992536;28;19914;-83
2023/09/07 09:47:38;;;;;;;;;;;24.00;63.00;;;;;;5002266;28;20392;-83
2023/09/07 09:50:06;;;;;;;;;;;24.00;61.60;;;;;;4991745;28;19910;-82
2023/09/07 09:52:33;;;;;;;;;;;23.90;61.50;;;;;;5007519;28;19914;-84
2023/09/07 09:54:59;;;;;;;;;;;24.00;62.30;;;;;;4994889;28;19972;-84
2023/09/07 09:57:25;;;;;;;;;;;24.00;63.30;;;;;;5008076;28;19920;-84
2023/09/07 09:59:52;;;;;;;;;;;24.10;64.40;;;;;;5004957;28;19992;-83
2023/09/07 10:02:17;;;;;;;;;;;24.10;64.20;;;;;;5002906;28;20296;-83
2023/09/07 10:04:43;;;;;;;;;;;24.00;63.30;;;;;;4999546;28;19910;-83
2023/09/07 10:07:08;;;;;;;;;;;24.10;63.80;;;;;;4992036;28;19918;-84
2023/09/07 10:09:34;;;;;;;;;;;24.10;63.20;;;;;;5016560;28;19910;-83
2023/09/07 10:12:03;;;;;;;;;;;24.10;62.70;;;;;;5006197;28;19914;-83
2023/09/07 10:14:38;;;;;;;;;;;24.30;62.30;;;;;;4995755;28;19910;-83
2023/09/07 10:17:04;;;;;;;;;;;24.30;61.20;;;;;;5003980;28;19918;-84
2023/09/07 10:19:29;;;;;;;;;;;24.50;61.80;;;;;;4994045;28;20301;-84
2023/09/07 10:21:55;;;;;;;;;;;24.70;60.50;;;;;;5016153;28;19917;-84
2023/09/07 10:24:24;;;;;;;;;;;24.60;61.70;;;;;;5008275;28;19948;-83
2023/09/07 10:27:00;;;;;;;;;;;24.60;61.30;;;;;;4994648;28;19986;-83
2023/09/07 10:29:25;;;;;;;;;;;24.70;60.40;;;;;;5009207;28;19913;-84
2023/09/07 10:31:51;;;;;;;;;;;24.70;62.20;;;;;;5007907;28;19936;-85
2023/09/07 10:34:17;;;;;;;;;;;24.80;63.00;;;;;;5000341;28;19914;-84
2023/09/07 10:36:43;;;;;;;;;;;24.90;60.10;;;;;;5004424;28;20603;-84
2023/09/07 10:39:08;;;;;;;;;;;24.80;61.40;;;;;;5018645;28;19914;-83
2023/09/07 10:41:42;;;;;;;;;;;24.90;59.20;;;;;;5008503;28;20373;-83
2023/09/07 10:44:07;;;;;;;;;;;25.00;60.80;;;;;;4993714;28;19924;-83
2023/09/07 10:46:33;;;;;;;;;;;25.00;60.70;;;;;;5007570;28;19917;-84
2023/09/07 10:48:58;;;;;;;;;;;25.00;60.00;;;;;;5005982;28;19913;-84
2023/09/07 10:51:24;;;;;;;;;;;25.30;58.80;;;;;;4996442;28;19910;-84
2023/09/07 10:53:49;;;;;;;;;;;25.30;59.50;;;;;;5000543;28;19914;-84
2023/09/07 10:56:15;;;;;;;;;;;25.20;60.90;;;;;;4997772;28;19972;-83
2023/09/07 10:58:42;;;;;;;;;;;25.20;60.80;;;;;;5004419;28;19917;-84
2023/09/07 11:01:10;;;;;;;;;;;25.30;59.10;;;;;;5001993;28;20004;-84
2023/09/07 11:03:36;;;;;;;;;;;25.30;59.20;;;;;;4992195;28;19916;-84
2023/09/07 11:06:08;;;;;;;;;;;25.40;57.70;;;;;;4993054;28;19973;-84
2023/09/07 11:08:34;;;;;;;;;;;25.50;58.50;;;;;;4994748;28;19917;-83
2023/09/07 11:11:00;;;;;;;;;;;25.50;59.10;;;;;;5001528;28;19910;-83
2023/09/07 11:13:26;;;;;;;;;;;25.50;58.80;;;;;;4993044;28;20001;-84
2023/09/07 11:15:55;;;;;;;;;;;25.50;59.20;;;;;;4997930;28;19917;-84
2023/09/07 11:18:22;;;;;;;;;;;25.50;58.70;;;;;;4998784;28;20003;-83
2023/09/07 11:20:48;;;;;;;;;;;25.70;57.70;;;;;;4997730;28;19936;-83
2023/09/07 11:23:13;;;;;;;;;;;25.70;57.90;;;;;;4995562;28;20329;-83
2023/09/07 11:25:39;;;;;;;;;;;25.60;59.00;;;;;;4991810;28;19913;-85
2023/09/07 11:28:05;;;;;;;;;;;25.80;59.20;;;;;;4999846;28;19910;-84
2023/09/07 11:30:31;;;;;;;;;;;25.60;58.10;;;;;;4997853;28;19964;-84
2023/09/07 11:33:00;;;;;;;;;;;25.60;58.70;;;;;;5005509;28;19963;-83
2023/09/07 11:35:25;;;;;;;;;;;25.80;57.90;;;;;;5010043;28;19949;-83
2023/09/07 11:37:51;;;;;;;;;;;25.70;58.70;;;;;;5000723;28;20012;-84
2023/09/07 11:40:17;;;;;;;;;;;25.60;58.40;;;;;;5001499;28;19913;-84
2023/09/07 11:42:42;;;;;;;;;;;25.80;60.90;;;;;;4994854;28;19932;-83
2023/09/07 11:45:09;;;;;;;;;;;25.90;61.40;;;;;;5000269;28;19914;-84
2023/09/07 11:47:35;;;;;;;;;;;25.90;58.00;;;;;;4996026;28;19925;-83
2023/09/07 11:50:01;;;;;;;;;;;25.80;59.70;;;;;;4995490;28;20407;-82
2023/09/07 11:52:26;;;;;;;;;;;26.00;58.00;;;;;;5007142;28;19910;-82
2023/09/07 11:54:52;;;;;;;;;;;26.00;59.40;;;;;;5000920;28;19918;-82
2023/09/07 11:57:17;;;;;;;;;;;26.00;58.90;;;;;;5009276;28;19964;-82
2023/09/07 11:59:42;;;;;;;;;;;26.00;58.20;;;;;;4995353;28;19914;-82
2023/09/07 12:02:12;;;;;;;;;;;26.00;58.60;;;;;;4993925;28;20397;-84
2023/09/07 12:04:38;;;;;;;;;;;26.00;58.00;;;;;;5007588;28;20004;-82
2023/09/07 12:07:04;;;;;;;;;;;26.00;59.30;;;;;;5006871;28;19952;-81
2023/09/07 12:09:29;;;;;;;;;;;26.00;57.60;;;;;;5011124;28;20033;-81
2023/09/07 12:11:55;;;;;;;;;;;26.00;59.30;;;;;;4999062;28;19937;-81
2023/09/07 12:14:20;;;;;;;;;;;26.00;59.60;;;;;;5009291;28;19913;-81
2023/09/07 12:16:45;;;;;;;;;;;26.00;58.20;;;;;;4993597;28;20378;-82
2023/09/07 12:19:11;;;;;;;;;;;26.10;59.30;;;;;;4999093;28;19914;-80
2023/09/07 12:21:36;;;;;;;;;;;26.30;56.30;;;;;;5004930;28;19936;-83
2023/09/07 12:24:02;;;;;;;;;;;26.40;55.90;;;;;;5001426;28;19925;-83
2023/09/07 12:26:27;;;;;;;;;;;26.50;56.60;;;;;;5004930;28;20004;-82
2023/09/07 12:28:53;;;;;;;;;;;26.60;53.20;;;;;;5011280;28;19997;-82
2023/09/07 12:31:19;;;;;;;;;;;26.60;56.50;;;;;;5000352;28;19926;-82
2023/09/07 12:33:44;;;;;;;;;;;26.60;58.50;;;;;;5013944;28;19910;-82
2023/09/07 12:36:11;;;;;;;;;;;26.50;57.10;;;;;;5003866;28;19921;-83
2023/09/07 12:38:36;;;;;;;;;;;26.60;58.90;;;;;;5006278;28;19916;-83
2023/09/07 12:41:02;;;;;;;;;;;26.80;58.60;;;;;;5001556;28;20740;-83
2023/09/07 12:43:28;;;;;;;;;;;27.00;58.10;;;;;;5006448;28;19914;-83
2023/09/07 12:45:53;;;;;;;;;;;27.10;57.00;;;;;;5003257;28;19917;-83
2023/09/07 12:48:19;;;;;;;;;;;27.00;58.20;;;;;;5009429;28;19913;-82
2023/09/07 12:50:45;;;;;;;;;;;27.00;59.20;;;;;;5009895;28;19910;-82
2023/09/07 12:53:10;;;;;;;;;;;27.00;59.00;;;;;;5004220;28;19910;-81
2023/09/07 12:55:36;;;;;;;;;;;27.10;59.80;;;;;;5000675;28;20354;-83
2023/09/07 12:58:01;;;;;;;;;;;27.20;57.10;;;;;;5004658;28;19976;-83
2023/09/07 13:00:28;;;;;;;;;;;27.30;57.10;;;;;;5020120;28;19913;-84
2023/09/07 13:02:54;;;;;;;;;;;27.30;58.00;;;;;;4999479;28;20333;-83
2023/09/07 13:05:20;;;;;;;;;;;27.20;57.30;;;;;;5012525;28;19964;-83
2023/09/07 13:07:45;;;;;;;;;;;27.20;57.60;;;;;;5006978;28;19926;-82
2023/09/07 13:10:11;;;;;;;;;;;27.10;56.80;;;;;;5000973;28;20000;-83
2023/09/07 13:12:36;;;;;;;;;;;27.10;57.70;;;;;;5005937;28;19949;-82
2023/09/07 13:15:02;;;;;;;;;;;27.10;59.60;;;;;;5004505;28;19940;-83
2023/09/07 13:17:28;;;;;;;;;;;27.30;58.00;;;;;;5000591;28;19995;-83
2023/09/07 13:19:53;;;;;;;;;;;27.30;56.90;;;;;;5011287;28;20404;-83
2023/09/07 13:22:19;;;;;;;;;;;27.30;57.00;;;;;;5010350;28;19916;-82
2023/09/07 13:24:44;;;;;;;;;;;27.30;58.70;;;;;;5014591;28;19960;-82
2023/09/07 13:27:10;;;;;;;;;;;27.30;59.30;;;;;;5004172;28;19981;-83
2023/09/07 13:29:36;;;;;;;;;;;27.40;58.50;;;;;;5007605;28;19990;-83
2023/09/07 13:32:01;;;;;;;;;;;27.50;56.20;;;;;;5000513;28;19913;-82
2023/09/07 13:34:27;;;;;;;;;;;27.60;54.80;;;;;;5005162;28;19909;-83
2023/09/07 13:36:53;;;;;;;;;;;27.50;56.00;;;;;;5007949;28;20015;-82
2023/09/07 13:39:18;;;;;;;;;;;27.50;56.00;;;;;;5007733;28;19910;-82
2023/09/07 13:41:44;;;;;;;;;;;27.50;57.20;;;;;;5006562;28;19910;-82
2023/09/07 13:44:09;;;;;;;;;;;27.60;56.30;;;;;;5006832;28;19921;-83
2023/09/07 13:46:35;;;;;;;;;;;27.60;54.90;;;;;;5024399;28;19918;-82
2023/09/07 13:49:01;;;;;;;;;;;27.60;55.50;;;;;;5011154;28;19913;-82
2023/09/07 13:51:26;;;;;;;;;;;27.70;55.50;;;;;;5005443;28;20004;-83
2023/09/07 13:53:51;;;;;;;;;;;27.80;53.70;;;;;;5008582;28;19914;-83
2023/09/07 13:56:17;;;;;;;;;;;27.80;54.30;;;;;;5010880;28;20020;-81
2023/09/07 13:58:43;;;;;;;;;;;27.80;53.10;;;;;;5012974;28;19910;-81
2023/09/07 14:01:08;;;;;;;;;;;28.00;53.00;;;;;;5013225;28;19916;-82
2023/09/07 14:03:34;;;;;;;;;;;27.90;53.40;;;;;;5021061;28;19961;-82
2023/09/07 14:05:59;;;;;;;;;;;28.10;53.50;;;;;;5009102;28;20012;-82
2023/09/07 14:08:25;;;;;;;;;;;28.00;53.30;;;;;;5008070;28;19917;-82
2023/09/07 14:10:50;;;;;;;;;;;28.10;53.50;;;;;;5005262;28;19910;-83
2023/09/07 14:13:17;;;;;;;;;;;28.00;52.90;;;;;;4998284;28;19914;-82
2023/09/07 14:15:43;;;;;;;;;;;28.00;52.00;;;;;;5014497;28;19914;-83